sensor_id;sensor_type;location;lat;lon;timestamp;pressure;altitude;pressure_sealevel;temperature;humidity
77799;BME280;66989;50.426;15.352;2023-05-31T00:02:01;98902.13;;;10.56;63.85
77799;BME280;66989;50.426;15.352;2023-05-31T00:04:27;98912.56;;;10.57;63.97
77799;BME280;66989;50.426;15.352;2023-05-31T00:06:52;98903.75;;;10.58;63.90
77799;BME280;66989;50.426;15.352;2023-05-31T00:09:17;98896.03;;;10.55;64.82
77799;BME280;66989;50.426;15.352;2023-05-31T00:11:43;98906.03;;;10.50;64.81
77799;BME280;66989;50.426;15.352;2023-05-31T00:14:12;98902.84;;;10.45;65.23
77799;BME280;66989;50.426;15.352;2023-05-31T00:16:37;98893.66;;;10.38;65.87
77799;BME280;66989;50.426;15.352;2023-05-31T00:19:03;98895.53;;;10.36;65.32
77799;BME280;66989;50.426;15.352;2023-05-31T00:21:28;98897.28;;;10.35;64.80
77799;BME280;66989;50.426;15.352;2023-05-31T00:23:53;98893.66;;;10.38;64.51
77799;BME280;66989;50.426;15.352;2023-05-31T00:26:19;98904.94;;;10.40;64.32
77799;BME280;66989;50.426;15.352;2023-05-31T00:28:44;98896.84;;;10.43;63.91
77799;BME280;66989;50.426;15.352;2023-05-31T00:31:10;98894.63;;;10.50;63.76
77799;BME280;66989;50.426;15.352;2023-05-31T00:33:35;98903.19;;;10.53;63.03
77799;BME280;66989;50.426;15.352;2023-05-31T00:36:00;98900.34;;;10.56;63.04
77799;BME280;66989;50.426;15.352;2023-05-31T00:38:26;98903.75;;;10.58;63.53
77799;BME280;66989;50.426;15.352;2023-05-31T00:40:53;98900.16;;;10.59;63.38
77799;BME280;66989;50.426;15.352;2023-05-31T00:43:19;98897.59;;;10.58;63.87
77799;BME280;66989;50.426;15.352;2023-05-31T00:45:44;98899.41;;;10.57;64.83
77799;BME280;66989;50.426;15.352;2023-05-31T00:48:11;98895.84;;;10.58;64.71
77799;BME280;66989;50.426;15.352;2023-05-31T00:50:36;98895.84;;;10.58;64.60
77799;BME280;66989;50.426;15.352;2023-05-31T00:53:03;98893.28;;;10.57;64.58
77799;BME280;66989;50.426;15.352;2023-05-31T00:55:29;98891.47;;;10.57;64.04
77799;BME280;66989;50.426;15.352;2023-05-31T00:57:55;98890.63;;;10.57;64.33
77799;BME280;66989;50.426;15.352;2023-05-31T01:00:22;98890.75;;;10.55;64.09
77799;BME280;66989;50.426;15.352;2023-05-31T01:02:47;98889.06;;;10.54;63.77
77799;BME280;66989;50.426;15.352;2023-05-31T01:05:16;98887.47;;;10.52;64.13
77799;BME280;66989;50.426;15.352;2023-05-31T01:07:41;98896.44;;;10.49;64.32
77799;BME280;66989;50.426;15.352;2023-05-31T01:10:07;98887.03;;;10.45;64.85
77799;BME280;66989;50.426;15.352;2023-05-31T01:15:32;98889.28;;;10.37;65.37
77799;BME280;66989;50.426;15.352;2023-05-31T01:18:09;98897.50;;;10.32;65.00
77799;BME280;66989;50.426;15.352;2023-05-31T01:20:39;98900.31;;;10.29;65.49
77799;BME280;66989;50.426;15.352;2023-05-31T01:23:18;98895.22;;;10.26;65.99
77799;BME280;66989;50.426;15.352;2023-05-31T01:28:55;98889.50;;;10.20;66.34
77799;BME280;66989;50.426;15.352;2023-05-31T01:31:21;98895.00;;;10.17;66.27
77799;BME280;66989;50.426;15.352;2023-05-31T01:33:48;98897.81;;;10.14;66.82
77799;BME280;66989;50.426;15.352;2023-05-31T01:36:15;98898.00;;;10.10;66.91
77799;BME280;66989;50.426;15.352;2023-05-31T01:38:41;98897.25;;;10.08;66.99
77799;BME280;66989;50.426;15.352;2023-05-31T01:41:07;98895.66;;;10.06;66.93
77799;BME280;66989;50.426;15.352;2023-05-31T01:43:34;98896.69;;;10.03;67.29
77799;BME280;66989;50.426;15.352;2023-05-31T01:46:00;98900.34;;;10.01;68.05
77799;BME280;66989;50.426;15.352;2023-05-31T01:48:26;98885.59;;;9.98;68.95
77799;BME280;66989;50.426;15.352;2023-05-31T01:50:52;98892.00;;;9.94;68.92
77799;BME280;66989;50.426;15.352;2023-05-31T01:53:18;98902.94;;;9.88;68.21
77799;BME280;66989;50.426;15.352;2023-05-31T01:55:44;98901.25;;;9.87;67.69
77799;BME280;66989;50.426;15.352;2023-05-31T01:58:10;98895.13;;;9.87;67.00
77799;BME280;66989;50.426;15.352;2023-05-31T02:00:37;98894.28;;;9.86;66.67
77799;BME280;66989;50.426;15.352;2023-05-31T02:03:03;98899.47;;;9.88;65.94
77799;BME280;66989;50.426;15.352;2023-05-31T02:05:29;98889.66;;;9.90;65.60
77799;BME280;66989;50.426;15.352;2023-05-31T02:07:55;98894.75;;;9.93;65.36
77799;BME280;66989;50.426;15.352;2023-05-31T02:10:21;98899.19;;;9.92;65.12
77799;BME280;66989;50.426;15.352;2023-05-31T02:12:46;98894.84;;;9.91;65.61
77799;BME280;66989;50.426;15.352;2023-05-31T02:15:15;98903.88;;;9.87;65.59
77799;BME280;66989;50.426;15.352;2023-05-31T02:17:43;98912.16;;;9.81;66.22
77799;BME280;66989;50.426;15.352;2023-05-31T02:20:10;98916.09;;;9.74;66.77
77799;BME280;66989;50.426;15.352;2023-05-31T02:22:42;98913.00;;;9.67;67.23
77799;BME280;66989;50.426;15.352;2023-05-31T02:25:12;98911.78;;;9.58;67.81
77799;BME280;66989;50.426;15.352;2023-05-31T02:27:38;98909.63;;;9.51;68.30
77799;BME280;66989;50.426;15.352;2023-05-31T02:30:04;98911.78;;;9.44;68.59
77799;BME280;66989;50.426;15.352;2023-05-31T02:32:31;98914.03;;;9.36;68.39
77799;BME280;66989;50.426;15.352;2023-05-31T02:35:04;98919.56;;;9.31;68.82
77799;BME280;66989;50.426;15.352;2023-05-31T02:37:31;98917.97;;;9.29;68.79
77799;BME280;66989;50.426;15.352;2023-05-31T02:39:57;98918.03;;;9.27;68.08
77799;BME280;66989;50.426;15.352;2023-05-31T02:42:22;98920.59;;;9.29;67.90
77799;BME280;66989;50.426;15.352;2023-05-31T02:44:47;98917.78;;;9.32;67.70
77799;BME280;66989;50.426;15.352;2023-05-31T02:47:13;98917.59;;;9.35;67.88
77799;BME280;66989;50.426;15.352;2023-05-31T02:49:38;98915.63;;;9.39;67.44
77799;BME280;66989;50.426;15.352;2023-05-31T02:52:04;98915.44;;;9.42;67.59
77799;BME280;66989;50.426;15.352;2023-05-31T02:54:29;98916.19;;;9.44;67.73
77799;BME280;66989;50.426;15.352;2023-05-31T02:56:55;98911.78;;;9.44;68.03
77799;BME280;66989;50.426;15.352;2023-05-31T02:59:20;98918.75;;;9.45;68.30
77799;BME280;66989;50.426;15.352;2023-05-31T03:01:46;98921.38;;;9.45;68.45
77799;BME280;66989;50.426;15.352;2023-05-31T03:04:11;98920.34;;;9.48;68.15
77799;BME280;66989;50.426;15.352;2023-05-31T03:06:36;98928.13;;;9.49;68.51
77799;BME280;66989;50.426;15.352;2023-05-31T03:09:05;98932.38;;;9.52;68.27
77799;BME280;66989;50.426;15.352;2023-05-31T03:11:30;98925.16;;;9.55;68.42
77799;BME280;66989;50.426;15.352;2023-05-31T03:13:56;98922.31;;;9.58;68.03
77799;BME280;66989;50.426;15.352;2023-05-31T03:16:21;98922.97;;;9.62;68.14
77799;BME280;66989;50.426;15.352;2023-05-31T03:18:48;98914.81;;;9.67;67.62
77799;BME280;66989;50.426;15.352;2023-05-31T03:21:15;98924.94;;;9.73;67.75
77799;BME280;66989;50.426;15.352;2023-05-31T03:23:41;98928.16;;;9.78;67.59
77799;BME280;66989;50.426;15.352;2023-05-31T03:26:06;98931.34;;;9.83;66.95
77799;BME280;66989;50.426;15.352;2023-05-31T03:28:32;98930.97;;;9.89;66.83
77799;BME280;66989;50.426;15.352;2023-05-31T03:30:57;98932.47;;;9.93;66.74
77799;BME280;66989;50.426;15.352;2023-05-31T03:33:23;98926.81;;;9.99;66.91
77799;BME280;66989;50.426;15.352;2023-05-31T03:35:48;98920.13;;;10.08;66.70
77799;BME280;66989;50.426;15.352;2023-05-31T03:38:14;98916.25;;;10.14;66.65
77799;BME280;66989;50.426;15.352;2023-05-31T03:40:40;98917.47;;;10.22;66.71
77799;BME280;66989;50.426;15.352;2023-05-31T03:43:05;98924.03;;;10.29;66.64
77799;BME280;66989;50.426;15.352;2023-05-31T03:45:30;98925.53;;;10.33;66.75
77799;BME280;66989;50.426;15.352;2023-05-31T03:47:56;98928.66;;;10.40;66.55
77799;BME280;66989;50.426;15.352;2023-05-31T03:50:21;98930.88;;;10.46;66.32
77799;BME280;66989;50.426;15.352;2023-05-31T03:52:46;98926.94;;;10.53;66.48
77799;BME280;66989;50.426;15.352;2023-05-31T03:55:12;98931.81;;;10.59;65.93
77799;BME280;66989;50.426;15.352;2023-05-31T03:57:38;98927.81;;;10.67;65.69
77799;BME280;66989;50.426;15.352;2023-05-31T04:00:04;98922.97;;;10.73;65.46
77799;BME280;66989;50.426;15.352;2023-05-31T04:02:36;98925.22;;;10.79;64.21
77799;BME280;66989;50.426;15.352;2023-05-31T04:05:03;98926.81;;;10.82;64.04
77799;BME280;66989;50.426;15.352;2023-05-31T04:07:29;98924.72;;;10.87;64.40
77799;BME280;66989;50.426;15.352;2023-05-31T04:09:55;98931.19;;;10.96;64.03
77799;BME280;66989;50.426;15.352;2023-05-31T04:12:20;98927.28;;;11.01;64.00
77799;BME280;66989;50.426;15.352;2023-05-31T04:14:46;98939.13;;;11.08;63.61
77799;BME280;66989;50.426;15.352;2023-05-31T04:17:11;98927.00;;;11.19;63.24
77799;BME280;66989;50.426;15.352;2023-05-31T04:19:37;98927.09;;;11.30;62.62
77799;BME280;66989;50.426;15.352;2023-05-31T04:22:02;98922.88;;;11.40;62.35
77799;BME280;66989;50.426;15.352;2023-05-31T04:24:28;98934.31;;;11.53;62.27
77799;BME280;66989;50.426;15.352;2023-05-31T04:26:53;98934.31;;;11.66;61.74
77799;BME280;66989;50.426;15.352;2023-05-31T04:29:20;98933.34;;;11.80;61.43
77799;BME280;66989;50.426;15.352;2023-05-31T04:31:46;98934.09;;;11.95;61.25
77799;BME280;66989;50.426;15.352;2023-05-31T04:34:12;98930.47;;;12.08;60.22
77799;BME280;66989;50.426;15.352;2023-05-31T04:36:43;98929.28;;;12.25;59.65
77799;BME280;66989;50.426;15.352;2023-05-31T04:39:09;98926.38;;;12.41;59.09
77799;BME280;66989;50.426;15.352;2023-05-31T04:41:40;98927.91;;;12.56;58.74
77799;BME280;66989;50.426;15.352;2023-05-31T04:44:05;98936.41;;;12.73;58.42
77799;BME280;66989;50.426;15.352;2023-05-31T04:46:31;98933.13;;;12.93;58.53
77799;BME280;66989;50.426;15.352;2023-05-31T04:48:57;98944.16;;;13.11;58.81
77799;BME280;66989;50.426;15.352;2023-05-31T04:51:23;98945.56;;;13.28;58.67
77799;BME280;66989;50.426;15.352;2023-05-31T04:53:49;98944.88;;;13.48;58.51
77799;BME280;66989;50.426;15.352;2023-05-31T04:56:14;98939.81;;;13.67;58.06
77799;BME280;66989;50.426;15.352;2023-05-31T04:58:40;98932.03;;;13.88;57.64
77799;BME280;66989;50.426;15.352;2023-05-31T05:01:06;98936.53;;;14.10;57.50
77799;BME280;66989;50.426;15.352;2023-05-31T05:03:32;98926.59;;;14.35;57.38
77799;BME280;66989;50.426;15.352;2023-05-31T05:06:01;98928.25;;;14.58;57.17
77799;BME280;66989;50.426;15.352;2023-05-31T05:08:26;98925.41;;;14.82;56.19
77799;BME280;66989;50.426;15.352;2023-05-31T05:10:52;98927.94;;;15.04;55.62
77799;BME280;66989;50.426;15.352;2023-05-31T05:13:17;98926.50;;;15.33;55.39
77799;BME280;66989;50.426;15.352;2023-05-31T05:15:43;98927.53;;;15.62;54.62
77799;BME280;66989;50.426;15.352;2023-05-31T05:18:08;98926.56;;;15.94;53.74
77799;BME280;66989;50.426;15.352;2023-05-31T05:20:35;98926.41;;;16.26;52.96
77799;BME280;66989;50.426;15.352;2023-05-31T05:23:01;98920.22;;;16.56;53.16
77799;BME280;66989;50.426;15.352;2023-05-31T05:25:32;98928.09;;;16.87;53.52
77799;BME280;66989;50.426;15.352;2023-05-31T05:27:57;98931.63;;;17.16;52.73
77799;BME280;66989;50.426;15.352;2023-05-31T05:30:23;98936.63;;;17.38;52.65
77799;BME280;66989;50.426;15.352;2023-05-31T05:32:48;98927.22;;;17.63;52.13
77799;BME280;66989;50.426;15.352;2023-05-31T05:35:14;98935.59;;;17.88;51.23
77799;BME280;66989;50.426;15.352;2023-05-31T05:37:39;98929.72;;;18.12;51.50
77799;BME280;66989;50.426;15.352;2023-05-31T05:40:05;98938.78;;;18.29;50.99
77799;BME280;66989;50.426;15.352;2023-05-31T05:42:32;98933.72;;;18.53;49.66
77799;BME280;66989;50.426;15.352;2023-05-31T05:45:02;98938.97;;;18.73;47.30
77799;BME280;66989;50.426;15.352;2023-05-31T05:47:27;98931.75;;;19.01;47.04
77799;BME280;66989;50.426;15.352;2023-05-31T05:49:53;98930.00;;;19.27;44.57
77799;BME280;66989;50.426;15.352;2023-05-31T05:52:18;98933.19;;;19.57;44.75
77799;BME280;66989;50.426;15.352;2023-05-31T05:54:43;98924.06;;;19.85;43.62
77799;BME280;66989;50.426;15.352;2023-05-31T05:57:10;98933.56;;;20.14;40.70
77799;BME280;66989;50.426;15.352;2023-05-31T05:59:36;98929.69;;;20.42;40.04
77799;BME280;66989;50.426;15.352;2023-05-31T06:02:03;98934.53;;;20.39;38.10
77799;BME280;66989;50.426;15.352;2023-05-31T06:04:28;98927.34;;;20.47;38.59
77799;BME280;66989;50.426;15.352;2023-05-31T06:06:53;98934.44;;;20.57;38.57
77799;BME280;66989;50.426;15.352;2023-05-31T06:09:19;98942.22;;;20.84;38.58
77799;BME280;66989;50.426;15.352;2023-05-31T06:11:45;98940.09;;;21.04;38.14
77799;BME280;66989;50.426;15.352;2023-05-31T06:14:10;98935.91;;;21.10;38.11
77799;BME280;66989;50.426;15.352;2023-05-31T06:16:35;98936.22;;;21.07;37.92
77799;BME280;66989;50.426;15.352;2023-05-31T06:19:01;98929.88;;;21.24;37.78
77799;BME280;66989;50.426;15.352;2023-05-31T06:21:26;98939.78;;;21.40;36.99
77799;BME280;66989;50.426;15.352;2023-05-31T06:23:51;98934.25;;;21.49;36.25
77799;BME280;66989;50.426;15.352;2023-05-31T06:26:17;98945.66;;;21.60;36.43
77799;BME280;66989;50.426;15.352;2023-05-31T06:28:44;98931.72;;;21.81;36.53
77799;BME280;66989;50.426;15.352;2023-05-31T06:31:10;98932.50;;;21.97;35.79
77799;BME280;66989;50.426;15.352;2023-05-31T06:33:35;98929.19;;;21.79;36.20
77799;BME280;66989;50.426;15.352;2023-05-31T06:36:01;98935.19;;;22.06;36.48
77799;BME280;66989;50.426;15.352;2023-05-31T06:38:27;98930.41;;;22.16;35.92
77799;BME280;66989;50.426;15.352;2023-05-31T06:40:52;98930.16;;;22.02;35.83
77799;BME280;66989;50.426;15.352;2023-05-31T06:43:17;98929.00;;;22.36;35.59
77799;BME280;66989;50.426;15.352;2023-05-31T06:45:43;98922.72;;;22.60;35.34
77799;BME280;66989;50.426;15.352;2023-05-31T06:48:08;98921.84;;;22.91;35.05
77799;BME280;66989;50.426;15.352;2023-05-31T06:50:37;98914.22;;;23.25;34.45
77799;BME280;66989;50.426;15.352;2023-05-31T06:53:02;98921.09;;;23.51;33.77
77799;BME280;66989;50.426;15.352;2023-05-31T06:55:27;98914.16;;;23.71;33.42
77799;BME280;66989;50.426;15.352;2023-05-31T06:57:53;98919.88;;;23.53;32.11
77799;BME280;66989;50.426;15.352;2023-05-31T07:00:18;98915.25;;;23.24;32.32
77799;BME280;66989;50.426;15.352;2023-05-31T07:02:44;98913.56;;;23.46;32.86
77799;BME280;66989;50.426;15.352;2023-05-31T07:05:11;98912.34;;;23.26;32.96
77799;BME280;66989;50.426;15.352;2023-05-31T07:07:37;98916.06;;;23.25;32.59
77799;BME280;66989;50.426;15.352;2023-05-31T07:10:02;98917.63;;;23.19;33.71
77799;BME280;66989;50.426;15.352;2023-05-31T07:12:28;98916.91;;;23.48;32.59
77799;BME280;66989;50.426;15.352;2023-05-31T07:14:53;98912.59;;;23.16;32.98
77799;BME280;66989;50.426;15.352;2023-05-31T07:17:18;98920.97;;;23.44;32.02
77799;BME280;66989;50.426;15.352;2023-05-31T07:19:45;98922.81;;;23.44;32.03
77799;BME280;66989;50.426;15.352;2023-05-31T07:22:14;98918.78;;;23.63;31.54
77799;BME280;66989;50.426;15.352;2023-05-31T07:24:39;98910.63;;;23.71;31.44
77799;BME280;66989;50.426;15.352;2023-05-31T07:27:05;98907.78;;;23.49;32.27
77799;BME280;66989;50.426;15.352;2023-05-31T07:29:31;98916.22;;;23.84;32.70
77799;BME280;66989;50.426;15.352;2023-05-31T07:31:56;98910.66;;;24.30;32.04
77799;BME280;66989;50.426;15.352;2023-05-31T07:34:22;98914.09;;;24.39;30.45
77799;BME280;66989;50.426;15.352;2023-05-31T07:36:48;98899.06;;;24.66;30.79
77799;BME280;66989;50.426;15.352;2023-05-31T07:39:14;98907.16;;;25.02;30.00
77799;BME280;66989;50.426;15.352;2023-05-31T07:41:39;98899.13;;;25.30;29.54
77799;BME280;66989;50.426;15.352;2023-05-31T07:44:04;98897.72;;;24.91;29.20
77799;BME280;66989;50.426;15.352;2023-05-31T07:46:30;98894.22;;;24.76;29.63
77799;BME280;66989;50.426;15.352;2023-05-31T07:48:56;98890.78;;;25.03;29.69
77799;BME280;66989;50.426;15.352;2023-05-31T07:51:21;98890.41;;;25.06;29.70
77799;BME280;66989;50.426;15.352;2023-05-31T07:53:46;98899.78;;;25.32;28.92
77799;BME280;66989;50.426;15.352;2023-05-31T07:56:12;98901.06;;;24.93;28.85
77799;BME280;66989;50.426;15.352;2023-05-31T07:58:38;98900.91;;;24.80;28.31
77799;BME280;66989;50.426;15.352;2023-05-31T08:01:03;98900.09;;;24.65;28.50
77799;BME280;66989;50.426;15.352;2023-05-31T08:03:29;98890.19;;;24.50;28.42
77799;BME280;66989;50.426;15.352;2023-05-31T08:05:56;98896.44;;;24.21;28.74
77799;BME280;66989;50.426;15.352;2023-05-31T08:08:22;98894.94;;;24.04;28.73
77799;BME280;66989;50.426;15.352;2023-05-31T08:10:48;98894.66;;;23.99;29.72
77799;BME280;66989;50.426;15.352;2023-05-31T08:13:13;98905.53;;;23.38;30.60
77799;BME280;66989;50.426;15.352;2023-05-31T08:15:38;98897.34;;;23.69;30.28
77799;BME280;66989;50.426;15.352;2023-05-31T08:18:04;98893.47;;;23.72;30.65
77799;BME280;66989;50.426;15.352;2023-05-31T08:20:29;98896.03;;;23.65;30.82
77799;BME280;66989;50.426;15.352;2023-05-31T08:22:55;98884.81;;;24.06;30.29
77799;BME280;66989;50.426;15.352;2023-05-31T08:25:21;98878.38;;;24.51;29.94
77799;BME280;66989;50.426;15.352;2023-05-31T08:27:47;98877.25;;;24.82;29.87
77799;BME280;66989;50.426;15.352;2023-05-31T08:30:13;98882.19;;;24.42;29.95
77799;BME280;66989;50.426;15.352;2023-05-31T08:32:38;98872.78;;;24.53;30.65
77799;BME280;66989;50.426;15.352;2023-05-31T08:35:06;98874.22;;;24.34;29.21
77799;BME280;66989;50.426;15.352;2023-05-31T08:37:32;98877.00;;;23.96;29.10
77799;BME280;66989;50.426;15.352;2023-05-31T08:39:58;98886.94;;;23.96;30.54
77799;BME280;66989;50.426;15.352;2023-05-31T08:42:25;98872.94;;;24.15;30.16
77799;BME280;66989;50.426;15.352;2023-05-31T08:44:53;98872.94;;;24.30;29.80
77799;BME280;66989;50.426;15.352;2023-05-31T08:47:42;98870.13;;;24.38;30.34
77799;BME280;66989;50.426;15.352;2023-05-31T08:50:09;98874.06;;;24.57;30.01
77799;BME280;66989;50.426;15.352;2023-05-31T08:52:35;98872.38;;;24.71;30.02
77799;BME280;66989;50.426;15.352;2023-05-31T08:55:02;98859.69;;;25.07;29.30
77799;BME280;66989;50.426;15.352;2023-05-31T08:57:30;98860.16;;;25.39;29.21
77799;BME280;66989;50.426;15.352;2023-05-31T08:59:56;98865.13;;;25.14;29.52
77799;BME280;66989;50.426;15.352;2023-05-31T09:02:22;98872.47;;;25.48;28.91
77799;BME280;66989;50.426;15.352;2023-05-31T09:04:49;98862.59;;;25.90;27.59
77799;BME280;66989;50.426;15.352;2023-05-31T09:07:15;98856.97;;;26.26;27.70
77799;BME280;66989;50.426;15.352;2023-05-31T09:09:40;98846.13;;;26.87;27.21
77799;BME280;66989;50.426;15.352;2023-05-31T09:12:06;98853.25;;;27.61;26.77
77799;BME280;66989;50.426;15.352;2023-05-31T09:14:33;98843.06;;;27.17;26.41
77799;BME280;66989;50.426;15.352;2023-05-31T09:16:59;98844.09;;;27.09;26.57
77799;BME280;66989;50.426;15.352;2023-05-31T09:19:25;98842.63;;;26.32;28.27
77799;BME280;66989;50.426;15.352;2023-05-31T09:21:52;98858.19;;;26.24;27.26
77799;BME280;66989;50.426;15.352;2023-05-31T09:24:17;98852.59;;;25.84;28.46
77799;BME280;66989;50.426;15.352;2023-05-31T09:26:49;98844.19;;;26.07;27.66
77799;BME280;66989;50.426;15.352;2023-05-31T09:29:15;98842.13;;;26.63;26.86
77799;BME280;66989;50.426;15.352;2023-05-31T09:31:43;98837.44;;;27.18;26.80
77799;BME280;66989;50.426;15.352;2023-05-31T09:34:25;98833.25;;;27.49;26.31
77799;BME280;66989;50.426;15.352;2023-05-31T09:36:51;98840.78;;;27.34;26.15
77799;BME280;66989;50.426;15.352;2023-05-31T09:39:18;98840.31;;;26.97;26.79
77799;BME280;66989;50.426;15.352;2023-05-31T09:41:48;98832.19;;;27.04;26.81
77799;BME280;66989;50.426;15.352;2023-05-31T09:44:14;98826.56;;;27.05;26.72
77799;BME280;66989;50.426;15.352;2023-05-31T09:46:40;98827.31;;;27.98;26.33
77799;BME280;66989;50.426;15.352;2023-05-31T09:49:06;98813.13;;;28.86;25.35
77799;BME280;66989;50.426;15.352;2023-05-31T09:51:32;98807.81;;;28.73;24.79
77799;BME280;66989;50.426;15.352;2023-05-31T09:54:02;98804.84;;;28.74;24.78
77799;BME280;66989;50.426;15.352;2023-05-31T09:56:36;98801.44;;;29.61;23.92
77799;BME280;66989;50.426;15.352;2023-05-31T09:59:01;98807.91;;;29.60;23.67
77799;BME280;66989;50.426;15.352;2023-05-31T10:01:28;98805.38;;;28.90;24.21
77799;BME280;66989;50.426;15.352;2023-05-31T10:03:53;98801.72;;;29.09;24.79
77799;BME280;66989;50.426;15.352;2023-05-31T10:06:19;98798.75;;;29.97;22.90
77799;BME280;66989;50.426;15.352;2023-05-31T10:08:46;98797.66;;;30.17;22.70
77799;BME280;66989;50.426;15.352;2023-05-31T10:11:17;98800.75;;;30.39;23.22
77799;BME280;66989;50.426;15.352;2023-05-31T10:13:44;98795.56;;;30.19;23.31
77799;BME280;66989;50.426;15.352;2023-05-31T10:16:10;98793.44;;;30.39;23.38
77799;BME280;66989;50.426;15.352;2023-05-31T10:18:44;98787.16;;;30.80;22.11
77799;BME280;66989;50.426;15.352;2023-05-31T10:21:15;98779.88;;;31.51;22.18
77799;BME280;66989;50.426;15.352;2023-05-31T10:26:17;98783.72;;;31.62;21.64
77799;BME280;66989;50.426;15.352;2023-05-31T10:31:22;98778.06;;;30.87;22.22
77799;BME280;66989;50.426;15.352;2023-05-31T10:33:54;98778.06;;;30.45;22.38
77799;BME280;66989;50.426;15.352;2023-05-31T10:36:22;98778.72;;;30.59;21.73
77799;BME280;66989;50.426;15.352;2023-05-31T10:39:05;98784.28;;;30.34;21.80
77799;BME280;66989;50.426;15.352;2023-05-31T10:41:39;98774.72;;;30.43;21.70
77799;BME280;66989;50.426;15.352;2023-05-31T10:44:23;98771.00;;;31.09;21.33
77799;BME280;66989;50.426;15.352;2023-05-31T10:47:00;98770.91;;;31.63;20.25
77799;BME280;66989;50.426;15.352;2023-05-31T10:49:28;98773.47;;;31.81;19.32
77799;BME280;66989;50.426;15.352;2023-05-31T10:51:53;98764.94;;;32.29;19.08
77799;BME280;66989;50.426;15.352;2023-05-31T10:54:19;98772.31;;;31.65;20.54
77799;BME280;66989;50.426;15.352;2023-05-31T10:56:55;98770.69;;;30.64;21.30
77799;BME280;66989;50.426;15.352;2023-05-31T10:59:22;98767.31;;;30.32;21.54
77799;BME280;66989;50.426;15.352;2023-05-31T11:01:47;98765.63;;;30.19;21.23
77799;BME280;66989;50.426;15.352;2023-05-31T11:04:20;98759.00;;;30.45;21.67
77799;BME280;66989;50.426;15.352;2023-05-31T11:06:47;98750.63;;;30.58;20.86
77799;BME280;66989;50.426;15.352;2023-05-31T11:09:16;98749.09;;;30.50;20.86
77799;BME280;66989;50.426;15.352;2023-05-31T11:11:44;98740.47;;;30.05;21.42
77799;BME280;66989;50.426;15.352;2023-05-31T11:19:14;98746.50;;;29.34;22.42
77799;BME280;66989;50.426;15.352;2023-05-31T11:21:51;98740.34;;;30.00;21.92
77799;BME280;66989;50.426;15.352;2023-05-31T11:26:52;98727.75;;;29.87;21.98
77799;BME280;66989;50.426;15.352;2023-05-31T11:29:18;98730.03;;;29.72;21.69
77799;BME280;66989;50.426;15.352;2023-05-31T11:34:24;98714.31;;;30.22;21.67
77799;BME280;66989;50.426;15.352;2023-05-31T11:36:52;98722.06;;;30.07;21.35
77799;BME280;66989;50.426;15.352;2023-05-31T11:39:19;98717.66;;;30.06;21.78
77799;BME280;66989;50.426;15.352;2023-05-31T11:41:45;98717.03;;;30.22;21.15
77799;BME280;66989;50.426;15.352;2023-05-31T11:44:11;98718.09;;;30.63;20.79
77799;BME280;66989;50.426;15.352;2023-05-31T11:46:42;98717.13;;;31.11;20.29
77799;BME280;66989;50.426;15.352;2023-05-31T11:49:10;98717.09;;;31.23;19.82
77799;BME280;66989;50.426;15.352;2023-05-31T11:51:35;98709.72;;;31.70;19.55
77799;BME280;66989;50.426;15.352;2023-05-31T11:54:02;98698.28;;;31.85;19.74
77799;BME280;66989;50.426;15.352;2023-05-31T11:56:31;98695.06;;;31.88;19.96
77799;BME280;66989;50.426;15.352;2023-05-31T11:59:03;98704.31;;;31.23;20.01
77799;BME280;66989;50.426;15.352;2023-05-31T12:01:34;98710.78;;;30.75;20.47
77799;BME280;66989;50.426;15.352;2023-05-31T12:04:00;98703.69;;;30.33;21.73
77799;BME280;66989;50.426;15.352;2023-05-31T12:06:25;98702.72;;;29.60;23.07
77799;BME280;66989;50.426;15.352;2023-05-31T12:08:54;98702.03;;;29.65;23.75
77799;BME280;66989;50.426;15.352;2023-05-31T12:11:22;98700.72;;;29.19;23.97
77799;BME280;66989;50.426;15.352;2023-05-31T12:13:48;98695.53;;;28.86;24.08
77799;BME280;66989;50.426;15.352;2023-05-31T12:16:13;98696.34;;;28.68;23.59
77799;BME280;66989;50.426;15.352;2023-05-31T12:18:39;98698.91;;;28.56;23.44
77799;BME280;66989;50.426;15.352;2023-05-31T12:21:08;98698.03;;;28.87;23.02
77799;BME280;66989;50.426;15.352;2023-05-31T12:23:54;98691.72;;;29.37;22.19
77799;BME280;66989;50.426;15.352;2023-05-31T12:26:21;98699.31;;;28.85;23.19
77799;BME280;66989;50.426;15.352;2023-05-31T12:28:48;98694.00;;;28.40;22.59
77799;BME280;66989;50.426;15.352;2023-05-31T12:31:20;98689.88;;;28.37;22.31
77799;BME280;66989;50.426;15.352;2023-05-31T12:34:13;98695.13;;;28.64;22.67
77799;BME280;66989;50.426;15.352;2023-05-31T12:36:47;98684.47;;;28.87;22.22
77799;BME280;66989;50.426;15.352;2023-05-31T12:39:22;98682.47;;;28.76;22.03
77799;BME280;66989;50.426;15.352;2023-05-31T12:41:50;98674.00;;;28.91;21.82
77799;BME280;66989;50.426;15.352;2023-05-31T12:44:20;98669.47;;;28.28;22.67
77799;BME280;66989;50.426;15.352;2023-05-31T12:46:48;98671.25;;;28.47;22.88
77799;BME280;66989;50.426;15.352;2023-05-31T12:49:24;98669.59;;;28.40;23.05
77799;BME280;66989;50.426;15.352;2023-05-31T12:52:03;98663.78;;;28.36;23.10
77799;BME280;66989;50.426;15.352;2023-05-31T12:54:30;98662.72;;;28.44;23.06
77799;BME280;66989;50.426;15.352;2023-05-31T12:56:58;98651.19;;;28.73;23.32
77799;BME280;66989;50.426;15.352;2023-05-31T12:59:24;98658.03;;;28.51;23.28
77799;BME280;66989;50.426;15.352;2023-05-31T13:01:54;98662.56;;;28.64;23.17
77799;BME280;66989;50.426;15.352;2023-05-31T13:04:20;98648.97;;;28.89;22.70
77799;BME280;66989;50.426;15.352;2023-05-31T13:06:47;98648.81;;;29.02;22.83
77799;BME280;66989;50.426;15.352;2023-05-31T13:09:12;98658.50;;;28.48;23.02
77799;BME280;66989;50.426;15.352;2023-05-31T13:11:38;98652.19;;;27.91;23.66